sensor_id;sensor_type;location;lat;lon;timestamp;pressure;altitude;pressure_sealevel;temperature;humidity
44359;BME280;30077;52.474;13.326;2022-08-19T00:01:40;100351.06;;;21.70;100.00
44359;BME280;30077;52.474;13.326;2022-08-19T00:06:42;100338.75;;;21.75;100.00
44359;BME280;30077;52.474;13.326;2022-08-19T00:11:43;100328.25;;;21.53;100.00
44359;BME280;30077;52.474;13.326;2022-08-19T00:16:45;100337.41;;;21.52;100.00
44359;BME280;30077;52.474;13.326;2022-08-19T00:21:46;100335.44;;;21.44;100.00
44359;BME280;30077;52.474;13.326;2022-08-19T00:26:47;100342.84;;;21.42;100.00
44359;BME280;30077;52.474;13.326;2022-08-19T00:31:47;100343.41;;;21.46;100.00
44359;BME280;30077;52.474;13.326;2022-08-19T00:36:48;100338.53;;;21.49;100.00
44359;BME280;30077;52.474;13.326;2022-08-19T00:41:49;100320.25;;;21.51;100.00
44359;BME280;30077;52.474;13.326;2022-08-19T00:46:51;100310.41;;;21.50;100.00
44359;BME280;30077;52.474;13.326;2022-08-19T00:51:58;100303.19;;;21.22;100.00
44359;BME280;30077;52.474;13.326;2022-08-19T00:57:02;100304.94;;;20.94;100.00
44359;BME280;30077;52.474;13.326;2022-08-19T01:02:06;100308.81;;;20.72;100.00
44359;BME280;30077;52.474;13.326;2022-08-19T01:07:07;100317.81;;;20.53;100.00
44359;BME280;30077;52.474;13.326;2022-08-19T01:12:08;100326.34;;;20.48;100.00
44359;BME280;30077;52.474;13.326;2022-08-19T01:17:09;100327.19;;;20.49;100.00
44359;BME280;30077;52.474;13.326;2022-08-19T01:22:31;100329.31;;;20.45;100.00
44359;BME280;30077;52.474;13.326;2022-08-19T01:27:41;100330.16;;;20.46;100.00
44359;BME280;30077;52.474;13.326;2022-08-19T01:32:42;100330.28;;;20.44;100.00
44359;BME280;30077;52.474;13.326;2022-08-19T01:37:46;100342.00;;;20.44;100.00
44359;BME280;30077;52.474;13.326;2022-08-19T01:42:48;100337.84;;;20.40;100.00
44359;BME280;30077;52.474;13.326;2022-08-19T01:47:49;100341.25;;;20.33;100.00
44359;BME280;30077;52.474;13.326;2022-08-19T01:52:49;100360.81;;;20.27;100.00
44359;BME280;30077;52.474;13.326;2022-08-19T01:57:55;100367.75;;;20.19;100.00
44359;BME280;30077;52.474;13.326;2022-08-19T02:02:57;100363.63;;;20.15;100.00
44359;BME280;30077;52.474;13.326;2022-08-19T02:07:58;100351.94;;;20.25;100.00
44359;BME280;30077;52.474;13.326;2022-08-19T02:12:59;100306.63;;;20.27;100.00
44359;BME280;30077;52.474;13.326;2022-08-19T02:17:59;100288.06;;;20.12;100.00
44359;BME280;30077;52.474;13.326;2022-08-19T02:22:59;100273.19;;;19.97;100.00
44359;BME280;30077;52.474;13.326;2022-08-19T02:28:01;100235.56;;;19.84;100.00
44359;BME280;30077;52.474;13.326;2022-08-19T02:33:01;100249.06;;;19.75;100.00
44359;BME280;30077;52.474;13.326;2022-08-19T02:38:02;100220.88;;;19.77;100.00
44359;BME280;30077;52.474;13.326;2022-08-19T02:43:21;100213.56;;;19.68;100.00
44359;BME280;30077;52.474;13.326;2022-08-19T02:48:24;100206.00;;;19.62;100.00
44359;BME280;30077;52.474;13.326;2022-08-19T02:53:27;100221.97;;;19.65;100.00
44359;BME280;30077;52.474;13.326;2022-08-19T02:58:27;100233.50;;;19.67;100.00
44359;BME280;30077;52.474;13.326;2022-08-19T03:03:27;100232.31;;;19.60;100.00
44359;BME280;30077;52.474;13.326;2022-08-19T03:08:28;100248.69;;;19.58;100.00
44359;BME280;30077;52.474;13.326;2022-08-19T03:13:28;100237.16;;;19.56;100.00
44359;BME280;30077;52.474;13.326;2022-08-19T03:18:29;100243.13;;;19.50;100.00
44359;BME280;30077;52.474;13.326;2022-08-19T03:23:29;100251.53;;;19.57;100.00
44359;BME280;30077;52.474;13.326;2022-08-19T03:28:29;100231.72;;;19.56;100.00
44359;BME280;30077;52.474;13.326;2022-08-19T03:33:31;100224.63;;;19.55;100.00
44359;BME280;30077;52.474;13.326;2022-08-19T03:38:34;100219.22;;;19.55;100.00
44359;BME280;30077;52.474;13.326;2022-08-19T03:43:36;100221.19;;;19.53;100.00
44359;BME280;30077;52.474;13.326;2022-08-19T03:48:39;100229.19;;;19.55;100.00
44359;BME280;30077;52.474;13.326;2022-08-19T03:53:39;100239.16;;;19.54;100.00
44359;BME280;30077;52.474;13.326;2022-08-19T03:58:40;100225.47;;;19.56;100.00
44359;BME280;30077;52.474;13.326;2022-08-19T04:03:40;100224.63;;;19.55;100.00
44359;BME280;30077;52.474;13.326;2022-08-19T04:08:42;100228.31;;;19.54;100.00
44359;BME280;30077;52.474;13.326;2022-08-19T04:13:42;100238.88;;;19.57;100.00
44359;BME280;30077;52.474;13.326;2022-08-19T04:18:47;100249.72;;;19.57;100.00
44359;BME280;30077;52.474;13.326;2022-08-19T04:23:47;100258.28;;;19.62;100.00
44359;BME280;30077;52.474;13.326;2022-08-19T04:28:48;100256.56;;;19.61;100.00
44359;BME280;30077;52.474;13.326;2022-08-19T04:33:49;100265.53;;;19.62;100.00
44359;BME280;30077;52.474;13.326;2022-08-19T04:38:53;100255.91;;;19.69;100.00
44359;BME280;30077;52.474;13.326;2022-08-19T04:43:54;100252.03;;;19.71;100.00
44359;BME280;30077;52.474;13.326;2022-08-19T04:48:54;100252.63;;;19.75;100.00
44359;BME280;30077;52.474;13.326;2022-08-19T04:53:57;100258.91;;;19.76;100.00
44359;BME280;30077;52.474;13.326;2022-08-19T04:58:57;100258.66;;;19.88;100.00
44359;BME280;30077;52.474;13.326;2022-08-19T05:03:59;100254.13;;;20.08;100.00
44359;BME280;30077;52.474;13.326;2022-08-19T05:09:02;100244.16;;;20.18;100.00
44359;BME280;30077;52.474;13.326;2022-08-19T05:14:02;100241.03;;;20.13;100.00
44359;BME280;30077;52.474;13.326;2022-08-19T05:19:03;100238.31;;;20.23;100.00
44359;BME280;30077;52.474;13.326;2022-08-19T05:24:23;100232.47;;;20.28;100.00
44359;BME280;30077;52.474;13.326;2022-08-19T05:29:25;100234.88;;;20.40;100.00
44359;BME280;30077;52.474;13.326;2022-08-19T05:34:27;100235.03;;;20.49;100.00
44359;BME280;30077;52.474;13.326;2022-08-19T05:39:30;100244.59;;;20.62;100.00
44359;BME280;30077;52.474;13.326;2022-08-19T05:44:33;100235.63;;;20.62;100.00
44359;BME280;30077;52.474;13.326;2022-08-19T05:49:34;100237.59;;;20.89;100.00
44359;BME280;30077;52.474;13.326;2022-08-19T05:54:39;100239.28;;;20.90;100.00
44359;BME280;30077;52.474;13.326;2022-08-19T05:59:42;100249.97;;;21.01;100.00
44359;BME280;30077;52.474;13.326;2022-08-19T06:04:43;100255.38;;;21.21;100.00
44359;BME280;30077;52.474;13.326;2022-08-19T06:09:44;100266.91;;;21.23;100.00
44359;BME280;30077;52.474;13.326;2022-08-19T06:14:44;100256.91;;;21.23;100.00
44359;BME280;30077;52.474;13.326;2022-08-19T06:19:45;100240.91;;;21.30;100.00
44359;BME280;30077;52.474;13.326;2022-08-19T06:24:45;100244.59;;;21.38;100.00
44359;BME280;30077;52.474;13.326;2022-08-19T06:29:45;100254.72;;;21.46;100.00
44359;BME280;30077;52.474;13.326;2022-08-19T06:34:46;100262.06;;;21.63;100.00
44359;BME280;30077;52.474;13.326;2022-08-19T06:39:47;100281.47;;;21.69;100.00
44359;BME280;30077;52.474;13.326;2022-08-19T06:44:48;100289.69;;;21.49;100.00
44359;BME280;30077;52.474;13.326;2022-08-19T06:49:49;100309.13;;;21.45;100.00
44359;BME280;30077;52.474;13.326;2022-08-19T06:54:49;100296.41;;;21.45;100.00
44359;BME280;30077;52.474;13.326;2022-08-19T06:59:50;100309.22;;;21.62;100.00
44359;BME280;30077;52.474;13.326;2022-08-19T07:04:50;100305.56;;;21.81;100.00
44359;BME280;30077;52.474;13.326;2022-08-19T07:09:51;100286.69;;;22.07;100.00
44359;BME280;30077;52.474;13.326;2022-08-19T07:14:53;100282.66;;;22.39;100.00
44359;BME280;30077;52.474;13.326;2022-08-19T07:19:53;100298.34;;;22.45;100.00
44359;BME280;30077;52.474;13.326;2022-08-19T07:24:54;100298.19;;;22.65;100.00
44359;BME280;30077;52.474;13.326;2022-08-19T07:29:55;100302.91;;;22.98;100.00
44359;BME280;30077;52.474;13.326;2022-08-19T07:34:55;100317.06;;;22.84;100.00
44359;BME280;30077;52.474;13.326;2022-08-19T07:39:55;100328.31;;;22.89;100.00
44359;BME280;30077;52.474;13.326;2022-08-19T07:44:55;100327.03;;;22.93;100.00
44359;BME280;30077;52.474;13.326;2022-08-19T07:49:56;100329.72;;;23.11;100.00
44359;BME280;30077;52.474;13.326;2022-08-19T07:54:56;100331.44;;;22.94;100.00
44359;BME280;30077;52.474;13.326;2022-08-19T07:59:57;100343.59;;;23.26;100.00
44359;BME280;30077;52.474;13.326;2022-08-19T08:04:57;100343.81;;;23.06;100.00
44359;BME280;30077;52.474;13.326;2022-08-19T08:10:17;100357.53;;;22.87;100.00
44359;BME280;30077;52.474;13.326;2022-08-19T08:15:17;100365.09;;;22.93;100.00
44359;BME280;30077;52.474;13.326;2022-08-19T08:20:18;100373.56;;;23.08;100.00
44359;BME280;30077;52.474;13.326;2022-08-19T08:25:23;100374.66;;;23.15;100.00
44359;BME280;30077;52.474;13.326;2022-08-19T08:30:25;100383.28;;;22.93;100.00
44359;BME280;30077;52.474;13.326;2022-08-19T08:35:25;100381.31;;;22.85;100.00
44359;BME280;30077;52.474;13.326;2022-08-19T08:45:55;100379.59;;;23.20;100.00
44359;BME280;30077;52.474;13.326;2022-08-19T08:50:58;100390.50;;;23.20;100.00
44359;BME280;30077;52.474;13.326;2022-08-19T08:56:02;100384.72;;;22.87;100.00
44359;BME280;30077;52.474;13.326;2022-08-19T09:01:03;100393.03;;;22.95;100.00
44359;BME280;30077;52.474;13.326;2022-08-19T09:06:07;100412.06;;;22.68;100.00
44359;BME280;30077;52.474;13.326;2022-08-19T09:11:22;100396.94;;;22.83;100.00
44359;BME280;30077;52.474;13.326;2022-08-19T09:16:25;100391.59;;;23.09;100.00
44359;BME280;30077;52.474;13.326;2022-08-19T09:21:27;100387.16;;;23.70;100.00
44359;BME280;30077;52.474;13.326;2022-08-19T09:26:28;100382.53;;;24.39;96.63
44359;BME280;30077;52.474;13.326;2022-08-19T09:31:29;100389.25;;;24.53;95.10
44359;BME280;30077;52.474;13.326;2022-08-19T09:36:30;100386.88;;;24.58;95.25
44359;BME280;30077;52.474;13.326;2022-08-19T09:41:32;100376.28;;;24.55;94.42
44359;BME280;30077;52.474;13.326;2022-08-19T09:46:33;100371.56;;;24.65;93.39
44359;BME280;30077;52.474;13.326;2022-08-19T09:51:33;100367.81;;;24.66;94.15
44359;BME280;30077;52.474;13.326;2022-08-19T09:56:34;100380.78;;;24.72;94.21
44359;BME280;30077;52.474;13.326;2022-08-19T10:01:35;100376.78;;;24.42;95.24
44359;BME280;30077;52.474;13.326;2022-08-19T10:06:38;100379.38;;;24.17;96.20
44359;BME280;30077;52.474;13.326;2022-08-19T10:11:44;100378.16;;;23.77;99.03
44359;BME280;30077;52.474;13.326;2022-08-19T10:16:48;100372.56;;;24.13;97.58
44359;BME280;30077;52.474;13.326;2022-08-19T10:21:49;100375.50;;;24.87;93.15
44359;BME280;30077;52.474;13.326;2022-08-19T10:26:49;100372.28;;;25.08;91.76
44359;BME280;30077;52.474;13.326;2022-08-19T10:31:50;100353.19;;;25.16;89.73
44359;BME280;30077;52.474;13.326;2022-08-19T10:36:50;100366.97;;;24.98;90.47
44359;BME280;30077;52.474;13.326;2022-08-19T10:41:52;100360.28;;;24.52;93.24
44359;BME280;30077;52.474;13.326;2022-08-19T10:46:52;100366.41;;;24.45;93.56
44359;BME280;30077;52.474;13.326;2022-08-19T10:51:52;100376.56;;;23.67;97.90
44359;BME280;30077;52.474;13.326;2022-08-19T10:57:11;100372.34;;;23.46;99.37
44359;BME280;30077;52.474;13.326;2022-08-19T11:02:11;100371.84;;;23.25;100.00
44359;BME280;30077;52.474;13.326;2022-08-19T11:07:12;100380.50;;;23.20;100.00
44359;BME280;30077;52.474;13.326;2022-08-19T11:12:13;100383.84;;;23.14;100.00
44359;BME280;30077;52.474;13.326;2022-08-19T11:17:14;100380.53;;;23.28;100.00
44359;BME280;30077;52.474;13.326;2022-08-19T11:22:15;100391.19;;;23.22;100.00
44359;BME280;30077;52.474;13.326;2022-08-19T11:27:17;100389.88;;;23.52;98.59
44359;BME280;30077;52.474;13.326;2022-08-19T11:32:18;100385.97;;;23.72;96.65
44359;BME280;30077;52.474;13.326;2022-08-19T11:37:18;100390.25;;;23.75;96.74
44359;BME280;30077;52.474;13.326;2022-08-19T11:42:18;100390.13;;;23.59;97.87
44359;BME280;30077;52.474;13.326;2022-08-19T11:47:37;100395.19;;;23.53;98.59
44359;BME280;30077;52.474;13.326;2022-08-19T11:52:38;100398.34;;;23.67;97.89
44359;BME280;30077;52.474;13.326;2022-08-19T11:57:39;100410.72;;;23.61;97.30
44359;BME280;30077;52.474;13.326;2022-08-19T12:02:41;100411.69;;;23.34;98.55
44359;BME280;30077;52.474;13.326;2022-08-19T12:07:42;100420.16;;;23.67;97.01
44359;BME280;30077;52.474;13.326;2022-08-19T12:12:42;100417.50;;;23.75;96.20
44359;BME280;30077;52.474;13.326;2022-08-19T12:17:45;100422.31;;;23.63;97.13
44359;BME280;30077;52.474;13.326;2022-08-19T12:22:46;100417.97;;;23.52;97.30
44359;BME280;30077;52.474;13.326;2022-08-19T12:27:46;100428.00;;;23.52;96.84
44359;BME280;30077;52.474;13.326;2022-08-19T12:32:47;100430.25;;;23.74;94.87
44359;BME280;30077;52.474;13.326;2022-08-19T12:37:48;100436.41;;;23.76;95.71
44359;BME280;30077;52.474;13.326;2022-08-19T12:42:48;100431.34;;;24.16;92.73
44359;BME280;30077;52.474;13.326;2022-08-19T12:47:49;100423.31;;;24.40;90.98
44359;BME280;30077;52.474;13.326;2022-08-19T12:52:49;100421.94;;;24.95;88.38
44359;BME280;30077;52.474;13.326;2022-08-19T12:57:49;100429.31;;;25.19;87.03
44359;BME280;30077;52.474;13.326;2022-08-19T13:02:52;100416.34;;;25.13;87.32
44359;BME280;30077;52.474;13.326;2022-08-19T13:07:53;100429.94;;;24.88;87.17
44359;BME280;30077;52.474;13.326;2022-08-19T13:13:00;100440.44;;;24.67;87.37
44359;BME280;30077;52.474;13.326;2022-08-19T13:18:01;100440.78;;;23.95;91.27
44359;BME280;30077;52.474;13.326;2022-08-19T13:23:02;100443.31;;;24.23;89.60
44359;BME280;30077;52.474;13.326;2022-08-19T13:28:03;100429.59;;;24.07;90.69
44359;BME280;30077;52.474;13.326;2022-08-19T13:33:04;100435.94;;;24.41;88.78
44359;BME280;30077;52.474;13.326;2022-08-19T13:38:11;100443.16;;;24.59;88.09
44359;BME280;30077;52.474;13.326;2022-08-19T13:43:13;100436.66;;;25.10;84.98
44359;BME280;30077;52.474;13.326;2022-08-19T13:48:13;100428.97;;;25.55;82.12
44359;BME280;30077;52.474;13.326;2022-08-19T13:53:14;100426.75;;;25.50;82.59
44359;BME280;30077;52.474;13.326;2022-08-19T13:58:15;100428.09;;;25.38;83.94
44359;BME280;30077;52.474;13.326;2022-08-19T14:03:15;100426.34;;;26.02;81.63
44359;BME280;30077;52.474;13.326;2022-08-19T14:08:17;100423.84;;;26.40;79.07
44359;BME280;30077;52.474;13.326;2022-08-19T14:13:20;100422.56;;;26.03;80.23
44359;BME280;30077;52.474;13.326;2022-08-19T14:18:20;100417.66;;;25.74;81.38
44359;BME280;30077;52.474;13.326;2022-08-19T14:23:21;100414.28;;;25.15;83.92
44359;BME280;30077;52.474;13.326;2022-08-19T14:28:21;100425.50;;;25.04;85.40
44359;BME280;30077;52.474;13.326;2022-08-19T14:33:22;100423.44;;;24.73;86.12
44359;BME280;30077;52.474;13.326;2022-08-19T14:38:22;100427.25;;;24.54;87.20
44359;BME280;30077;52.474;13.326;2022-08-19T14:43:22;100415.44;;;24.37;88.74
44359;BME280;30077;52.474;13.326;2022-08-19T14:48:22;100414.06;;;24.33;88.45
44359;BME280;30077;52.474;13.326;2022-08-19T14:53:23;100412.47;;;24.22;89.19
44359;BME280;30077;52.474;13.326;2022-08-19T14:58:23;100420.34;;;23.99;90.16
44359;BME280;30077;52.474;13.326;2022-08-19T15:03:23;100442.53;;;24.05;90.78
44359;BME280;30077;52.474;13.326;2022-08-19T15:08:24;100437.22;;;24.03;90.40
44359;BME280;30077;52.474;13.326;2022-08-19T15:13:26;100459.34;;;23.74;90.99
44359;BME280;30077;52.474;13.326;2022-08-19T15:18:27;100457.03;;;23.79;92.82
44359;BME280;30077;52.474;13.326;2022-08-19T15:23:27;100469.94;;;23.77;93.72
44359;BME280;30077;52.474;13.326;2022-08-19T15:28:27;100474.53;;;23.76;94.25
44359;BME280;30077;52.474;13.326;2022-08-19T15:33:28;100477.44;;;23.75;94.77
44359;BME280;30077;52.474;13.326;2022-08-19T15:38:31;100492.50;;;23.51;96.16
44359;BME280;30077;52.474;13.326;2022-08-19T15:43:37;100497.81;;;23.35;97.69
44359;BME280;30077;52.474;13.326;2022-08-19T15:48:40;100484.28;;;23.25;98.94
44359;BME280;30077;52.474;13.326;2022-08-19T15:53:41;100479.31;;;23.21;99.55
44359;BME280;30077;52.474;13.326;2022-08-19T15:58:42;100474.63;;;22.95;100.00
44359;BME280;30077;52.474;13.326;2022-08-19T16:04:01;100478.44;;;22.75;100.00
44359;BME280;30077;52.474;13.326;2022-08-19T16:09:22;100471.75;;;22.97;100.00
44359;BME280;30077;52.474;13.326;2022-08-19T16:14:23;100471.47;;;23.18;99.73
44359;BME280;30077;52.474;13.326;2022-08-19T16:19:24;100468.72;;;23.36;97.95
44359;BME280;30077;52.474;13.326;2022-08-19T16:24:27;100463.72;;;23.67;95.58
44359;BME280;30077;52.474;13.326;2022-08-19T16:29:28;100485.50;;;23.67;95.48
44359;BME280;30077;52.474;13.326;2022-08-19T16:34:28;100488.47;;;23.20;97.84
44359;BME280;30077;52.474;13.326;2022-08-19T16:39:30;100485.97;;;23.09;98.30
44359;BME280;30077;52.474;13.326;2022-08-19T16:44:30;100494.38;;;22.97;99.46
44359;BME280;30077;52.474;13.326;2022-08-19T16:49:31;100492.38;;;22.90;100.00
44359;BME280;30077;52.474;13.326;2022-08-19T16:54:31;100492.25;;;22.64;100.00
44359;BME280;30077;52.474;13.326;2022-08-19T16:59:33;100491.63;;;22.42;100.00
44359;BME280;30077;52.474;13.326;2022-08-19T17:04:33;100495.50;;;22.40;100.00
44359;BME280;30077;52.474;13.326;2022-08-19T17:09:34;100487.59;;;22.19;100.00
44359;BME280;30077;52.474;13.326;2022-08-19T17:14:34;100492.13;;;22.28;100.00
44359;BME280;30077;52.474;13.326;2022-08-19T17:19:34;100463.28;;;22.17;100.00
44359;BME280;30077;52.474;13.326;2022-08-19T17:24:35;100484.56;;;22.22;100.00
44359;BME280;30077;52.474;13.326;2022-08-19T17:29:35;100493.31;;;22.16;100.00
44359;BME280;30077;52.474;13.326;2022-08-19T17:34:35;100485.72;;;22.09;100.00
44359;BME280;30077;52.474;13.326;2022-08-19T17:39:36;100494.44;;;22.03;100.00
44359;BME280;30077;52.474;13.326;2022-08-19T17:44:37;100500.50;;;21.97;100.00
44359;BME280;30077;52.474;13.326;2022-08-19T17:49:39;100497.06;;;21.95;100.00
44359;BME280;30077;52.474;13.326;2022-08-19T17:54:40;100506.22;;;21.94;100.00
44359;BME280;30077;52.474;13.326;2022-08-19T17:59:40;100507.25;;;21.83;100.00
44359;BME280;30077;52.474;13.326;2022-08-19T18:04:40;100518.22;;;21.82;100.00
44359;BME280;30077;52.474;13.326;2022-08-19T18:09:41;100528.53;;;21.88;100.00
44359;BME280;30077;52.474;13.326;2022-08-19T18:14:41;100527.66;;;21.87;100.00
44359;BME280;30077;52.474;13.326;2022-08-19T18:19:43;100533.09;;;21.78;100.00
44359;BME280;30077;52.474;13.326;2022-08-19T18:24:43;100526.25;;;21.74;100.00
44359;BME280;30077;52.474;13.326;2022-08-19T18:29:44;100528.41;;;21.80;100.00
44359;BME280;30077;52.474;13.326;2022-08-19T18:34:45;100535.97;;;21.67;100.00
44359;BME280;30077;52.474;13.326;2022-08-19T18:39:45;100545.13;;;21.66;100.00
44359;BME280;30077;52.474;13.326;2022-08-19T18:45:05;100552.41;;;21.55;100.00
44359;BME280;30077;52.474;13.326;2022-08-19T18:50:24;100547.53;;;21.49;100.00
44359;BME280;30077;52.474;13.326;2022-08-19T18:55:24;100552.28;;;21.47;100.00
44359;BME280;30077;52.474;13.326;2022-08-19T19:00:28;100560.56;;;21.36;100.00
44359;BME280;30077;52.474;13.326;2022-08-19T19:05:29;100570.19;;;21.19;100.00
44359;BME280;30077;52.474;13.326;2022-08-19T19:10:29;100583.91;;;21.18;100.00
44359;BME280;30077;52.474;13.326;2022-08-19T19:15:29;100585.88;;;21.15;100.00
44359;BME280;30077;52.474;13.326;2022-08-19T19:20:29;100593.59;;;21.20;100.00
44359;BME280;30077;52.474;13.326;2022-08-19T19:25:30;100597.91;;;21.23;100.00
44359;BME280;30077;52.474;13.326;2022-08-19T19:30:31;100595.19;;;21.23;100.00
44359;BME280;30077;52.474;13.326;2022-08-19T19:35:32;100597.63;;;21.26;100.00
44359;BME280;30077;52.474;13.326;2022-08-19T19:40:33;100596.03;;;21.23;100.00
44359;BME280;30077;52.474;13.326;2022-08-19T19:45:33;100612.75;;;21.19;100.00
44359;BME280;30077;52.474;13.326;2022-08-19T19:50:33;100609.03;;;21.20;100.00
44359;BME280;30077;52.474;13.326;2022-08-19T19:55:33;100605.88;;;21.14;100.00
44359;BME280;30077;52.474;13.326;2022-08-19T20:00:35;100599.91;;;21.21;100.00
44359;BME280;30077;52.474;13.326;2022-08-19T20:05:35;100617.03;;;21.21;100.00
44359;BME280;30077;52.474;13.326;2022-08-19T20:10:39;100606.31;;;21.20;100.00
44359;BME280;30077;52.474;13.326;2022-08-19T20:15:40;100611.31;;;21.14;100.00
44359;BME280;30077;52.474;13.326;2022-08-19T20:20:43;100618.44;;;21.15;100.00
44359;BME280;30077;52.474;13.326;2022-08-19T20:25:45;100620.72;;;21.10;100.00
44359;BME280;30077;52.474;13.326;2022-08-19T20:30:45;100599.13;;;20.99;100.00
44359;BME280;30077;52.474;13.326;2022-08-19T20:35:46;100596.97;;;20.93;100.00
44359;BME280;30077;52.474;13.326;2022-08-19T20:40:47;100589.25;;;20.98;100.00
44359;BME280;30077;52.474;13.326;2022-08-19T20:45:47;100590.53;;;20.84;100.00
44359;BME280;30077;52.474;13.326;2022-08-19T20:50:47;100593.91;;;20.77;100.00
44359;BME280;30077;52.474;13.326;2022-08-19T20:55:50;100592.66;;;20.90;100.00
44359;BME280;30077;52.474;13.326;2022-08-19T21:00:52;100588.41;;;20.88;100.00
44359;BME280;30077;52.474;13.326;2022-08-19T21:05:54;100569.41;;;20.88;100.00
44359;BME280;30077;52.474;13.326;2022-08-19T21:10:55;100565.53;;;20.81;100.00
44359;BME280;30077;52.474;13.326;2022-08-19T21:15:56;100577.47;;;20.68;100.00
44359;BME280;30077;52.474;13.326;2022-08-19T21:20:56;100571.94;;;20.80;100.00
44359;BME280;30077;52.474;13.326;2022-08-19T21:25:58;100598.88;;;20.72;100.00
44359;BME280;30077;52.474;13.326;2022-08-19T21:30:59;100628.59;;;20.83;100.00
44359;BME280;30077;52.474;13.326;2022-08-19T21:36:01;100625.78;;;20.84;100.00
44359;BME280;30077;52.474;13.326;2022-08-19T21:41:03;100620.53;;;20.92;100.00
44359;BME280;30077;52.474;13.326;2022-08-19T21:46:04;100613.66;;;20.98;100.00
44359;BME280;30077;52.474;13.326;2022-08-19T21:51:05;100608.84;;;21.02;100.00
44359;BME280;30077;52.474;13.326;2022-08-19T21:56:05;100615.03;;;21.13;100.00
44359;BME280;30077;52.474;13.326;2022-08-19T22:01:06;100615.19;;;21.22;100.00
44359;BME280;30077;52.474;13.326;2022-08-19T22:06:06;100608.88;;;21.11;100.00
44359;BME280;30077;52.474;13.326;2022-08-19T22:11:08;100605.25;;;21.01;100.00
44359;BME280;30077;52.474;13.326;2022-08-19T22:16:08;100611.53;;;20.92;100.00
44359;BME280;30077;52.474;13.326;2022-08-19T22:21:09;100590.81;;;20.91;100.00
44359;BME280;30077;52.474;13.326;2022-08-19T22:26:10;100579.25;;;20.89;100.00
44359;BME280;30077;52.474;13.326;2022-08-19T22:31:11;100590.66;;;20.83;100.00
44359;BME280;30077;52.474;13.326;2022-08-19T22:36:12;100596.06;;;20.83;100.00
44359;BME280;30077;52.474;13.326;2022-08-19T22:41:13;100603.50;;;20.81;100.00
44359;BME280;30077;52.474;13.326;2022-08-19T22:46:14;100598.06;;;20.81;100.00
44359;BME280;30077;52.474;13.326;2022-08-19T22:51:15;100594.22;;;20.83;100.00
44359;BME280;30077;52.474;13.326;2022-08-19T22:56:34;100588.03;;;20.72;100.00
44359;BME280;30077;52.474;13.326;2022-08-19T23:01:34;100586.88;;;20.64;100.00
44359;BME280;30077;52.474;13.326;2022-08-19T23:06:38;100576.56;;;20.58;100.00
44359;BME280;30077;52.474;13.326;2022-08-19T23:11:39;100587.41;;;20.58;100.00
44359;BME280;30077;52.474;13.326;2022-08-19T23:16:40;100594.25;;;20.62;100.00
44359;BME280;30077;52.474;13.326;2022-08-19T23:21:41;100593.72;;;20.68;100.00
44359;BME280;30077;52.474;13.326;2022-08-19T23:26:42;100591.16;;;20.67;100.00
44359;BME280;30077;52.474;13.326;2022-08-19T23:32:02;100599.28;;;20.67;100.00
44359;BME280;30077;52.474;13.326;2022-08-19T23:37:05;100606.84;;;20.63;100.00
44359;BME280;30077;52.474;13.326;2022-08-19T23:42:10;100594.56;;;20.59;100.00
44359;BME280;30077;52.474;13.326;2022-08-19T23:47:10;100582.28;;;20.55;100.00
44359;BME280;30077;52.474;13.326;2022-08-19T23:52:11;100571.44;;;20.55;100.00
44359;BME280;30077;52.474;13.326;2022-08-19T23:57:11;100568.00;;;20.53;100.00
